Terminal Aerodrome Forecast
Issued by NWS Charleston, WV

Current Version | Previous Version | Graphics & Text | Print | Product List | Glossary On
Versions: 1 2 3 4 5 6 7 8 9 10 11 12 13 14 15 16 17 18 19 20 21 22 23 24 25 26 27 28
000
FTUS41 KRLX 281210 AAA
TAFHTS
TAF AMD
KHTS 281210Z 2812/2912 00000KT 1/4SM FG BKN002
     FM281230 00000KT 4SM BR BKN002
     FM281245 00000KT P6SM SCT035
     FM290800 00000KT 2SM BR SCT001
     FM291100 00000KT 3SM BR SCT040=

USA.gov is the U.S. government's official web portal to all federal, state and local government web resources and services.